Time;durP1;ratioP1;P1;durP2;ratioP2;P2;SDS_P1;SDS_P2;PMS_P1;PMS_P2;Temp;Humidity;BMP_temperature;BMP_pressure;BME280_temperature;BME280_humidity;BME280_pressure;Samples;Min_cycle;Max_cycle;Signal;HPM_P1;HPM_P2
2024/01/17 00:00:20;;;;;;;16.52;9.00;;;-1.40;99.90;;;-1.81;80.02;99390.13;4848129;28;24502;-64
2024/01/17 00:02:42;;;;;;;16.00;8.80;;;-1.40;99.90;;;-1.81;80.26;99384.19;4839479;28;24455;-64
2024/01/17 00:05:04;;;;;;;14.70;8.30;;;-1.50;99.90;;;-1.82;80.59;99374.84;4846953;28;24455;-64
2024/01/17 00:07:26;;;;;;;14.33;8.23;;;-1.50;99.90;;;-1.82;80.82;99370.56;4871050;28;24455;-64
2024/01/17 00:09:48;;;;;;;17.70;8.85;;;-1.50;99.90;;;-1.80;80.11;99367.94;4874713;28;24485;-63
2024/01/17 00:12:10;;;;;;;14.30;8.53;;;-1.50;99.90;;;-1.80;80.52;99353.44;4876003;28;24999;-63
2024/01/17 00:14:32;;;;;;;16.58;9.35;;;-1.50;99.90;;;-1.81;80.41;99353.50;4871059;28;24458;-64
2024/01/17 00:16:55;;;;;;;16.25;8.65;;;-1.50;99.90;;;-1.78;80.62;99345.69;4871062;28;24443;-63
2024/01/17 00:19:16;;;;;;;16.15;9.30;;;-1.50;99.90;;;-1.76;80.79;99341.34;4870680;28;24902;-64
2024/01/17 00:21:38;;;;;;;17.10;8.77;;;-1.50;99.90;;;-1.73;80.70;99331.00;4867015;28;24434;-63
2024/01/17 00:24:00;;;;;;;15.27;8.98;;;-1.40;99.90;;;-1.75;80.34;99328.53;4868457;28;24515;-63
2024/01/17 00:26:22;;;;;;;16.33;9.30;;;-1.40;99.90;;;-1.72;81.41;99324.97;4862573;28;24455;-62
2024/01/17 00:28:44;;;;;;;17.77;9.13;;;-1.40;99.90;;;-1.73;82.07;99324.16;4859327;28;24533;-64
2024/01/17 00:31:06;;;;;;;14.20;8.30;;;-1.40;99.90;;;-1.69;81.67;99327.41;4863430;28;24845;-64
2024/01/17 00:33:28;;;;;;;16.50;8.90;;;-1.40;99.90;;;-1.68;81.96;99335.00;4864025;28;24478;-64
2024/01/17 00:35:50;;;;;;;17.60;9.80;;;-1.40;99.90;;;-1.68;82.26;99324.78;4836144;28;24535;-64
2024/01/17 00:38:12;;;;;;;16.63;9.07;;;-1.30;99.90;;;-1.70;81.92;99326.56;4862366;28;24431;-63
2024/01/17 00:40:34;;;;;;;15.88;8.88;;;-1.40;99.90;;;-1.68;82.11;99336.72;4874055;28;24516;-64
2024/01/17 00:42:56;;;;;;;16.52;8.70;;;-1.40;99.90;;;-1.70;81.94;99334.25;4875046;28;24529;-63
2024/01/17 00:45:18;;;;;;;15.77;7.82;;;-1.40;99.90;;;-1.70;81.42;99321.47;4865389;28;24821;-64
2024/01/17 00:47:41;;;;;;;13.55;8.00;;;-1.40;99.90;;;-1.71;81.54;99313.88;4855762;28;24546;-63
2024/01/17 00:50:03;;;;;;;17.05;8.30;;;-1.40;99.90;;;-1.78;81.38;99313.28;4865344;28;24452;-64
2024/01/17 00:52:25;;;;;;;14.50;8.30;;;-1.40;99.90;;;-1.78;81.31;99317.56;4851790;28;24425;-63
2024/01/17 00:54:47;;;;;;;16.55;8.55;;;-1.40;99.90;;;-1.78;81.48;99322.69;4859386;28;24451;-64
2024/01/17 00:57:09;;;;;;;15.90;8.83;;;-1.50;99.90;;;-1.80;81.26;99321.94;4862094;28;24434;-64
2024/01/17 00:59:31;;;;;;;15.07;8.43;;;-1.50;99.90;;;-1.81;81.19;99322.84;4857799;28;24452;-63
2024/01/17 01:01:53;;;;;;;17.20;8.75;;;-1.50;99.90;;;-1.86;81.65;99309.41;4867140;28;24470;-64
2024/01/17 01:04:15;;;;;;;15.07;8.15;;;-1.50;99.90;;;-1.90;81.09;99305.31;4866885;28;25066;-63
2024/01/17 01:06:37;;;;;;;15.43;8.10;;;-1.60;99.90;;;-1.91;81.12;99317.25;4864335;28;24522;-64
2024/01/17 01:08:59;;;;;;;15.05;8.50;;;-1.60;99.90;;;-1.93;81.31;99315.66;4867384;28;24820;-63
2024/01/17 01:11:21;;;;;;;16.20;8.50;;;-1.60;99.90;;;-1.91;82.53;99309.59;4869082;28;24424;-64
2024/01/17 01:13:43;;;;;;;16.52;8.75;;;-1.60;99.90;;;-1.92;82.05;99307.94;4851467;28;24527;-63
2024/01/17 01:16:05;;;;;;;17.10;8.60;;;-1.60;99.90;;;-1.93;82.41;99306.28;4839879;28;24718;-64
2024/01/17 01:18:27;;;;;;;14.25;8.40;;;-1.60;99.90;;;-1.90;82.26;99306.16;4849325;28;24460;-64
2024/01/17 01:20:49;;;;;;;16.45;8.00;;;-1.60;99.90;;;-1.90;82.39;99305.31;4852974;28;24885;-61
2024/01/17 01:23:12;;;;;;;14.27;8.05;;;-1.50;99.90;;;-1.93;81.82;99302.88;4873063;28;24789;-65
2024/01/17 01:25:34;;;;;;;17.50;8.65;;;-1.60;99.90;;;-1.97;81.76;99299.63;4846220;28;24448;-66
2024/01/17 01:27:56;;;;;;;14.57;8.40;;;-1.60;99.90;;;-2.00;81.40;99294.66;4845819;28;24547;-62
2024/01/17 01:30:18;;;;;;;16.00;9.02;;;-1.60;99.90;;;-1.99;81.95;99295.47;4854768;28;24527;-64
2024/01/17 01:32:40;;;;;;;15.00;8.55;;;-1.70;99.90;;;-1.95;82.26;99295.28;4860380;28;25054;-63
2024/01/17 01:35:02;;;;;;;15.95;8.60;;;-1.70;99.90;;;-1.89;82.31;99283.97;4864493;28;24435;-63
2024/01/17 01:37:24;;;;;;;15.23;8.63;;;-1.60;99.90;;;-1.84;82.15;99282.88;4862592;28;24518;-65
2024/01/17 01:39:46;;;;;;;15.75;8.63;;;-1.50;99.90;;;-1.81;82.71;99277.63;4868729;28;24857;-64
2024/01/17 01:42:08;;;;;;;14.13;8.00;;;-1.50;99.90;;;-1.72;82.11;99277.22;4851103;28;24511;-63
2024/01/17 01:44:30;;;;;;;15.73;8.00;;;-1.40;99.90;;;-1.70;81.37;99259.25;4871574;28;25044;-63
2024/01/17 01:46:53;;;;;;;14.43;8.60;;;-1.40;99.90;;;-1.72;81.58;99256.78;4857393;28;24919;-64
2024/01/17 01:49:16;;;;;;;18.35;9.40;;;-1.40;99.90;;;-1.73;81.30;99257.69;4862501;28;24451;-63
2024/01/17 01:51:39;;;;;;;13.52;8.15;;;-1.40;99.90;;;-1.78;81.27;99246.81;4821833;28;24497;-62
2024/01/17 01:54:02;;;;;;;16.25;8.30;;;-1.40;99.90;;;-1.83;81.09;99246.19;4842724;28;24449;-64
2024/01/17 01:56:33;;;;;;;14.98;9.00;;;-1.50;99.90;;;-1.85;81.30;99235.19;4867593;28;24467;-64
2024/01/17 01:58:56;;;;;;;15.18;8.20;;;-1.50;99.90;;;-1.84;81.25;99233.47;4852776;28;24436;-64
2024/01/17 02:01:18;;;;;;;15.65;8.50;;;-1.50;99.90;;;-1.83;81.47;99233.41;4849015;28;24454;-64
2024/01/17 02:03:43;;;;;;;17.67;8.48;;;-1.50;99.90;;;-1.85;81.53;99230.09;4852796;28;24537;-64
2024/01/17 02:06:06;;;;;;;13.18;8.40;;;-1.50;99.90;;;-1.86;82.21;99223.34;4867689;28;24960;-64
2024/01/17 02:08:28;;;;;;;13.18;7.80;;;-1.50;99.90;;;-1.84;81.41;99233.47;4858307;28;24459;-64
2024/01/17 02:10:50;;;;;;;15.03;7.90;;;-1.60;99.90;;;-1.88;81.90;99225.13;4874485;28;24427;-64
2024/01/17 02:13:12;;;;;;;14.00;8.07;;;-1.50;99.90;;;-1.88;82.10;99237.91;4869295;28;24501;-64
2024/01/17 02:15:34;;;;;;;14.07;7.85;;;-1.60;99.90;;;-1.85;81.60;99226.69;4856190;28;24911;-64
2024/01/17 02:17:56;;;;;;;20.95;9.88;;;-1.60;99.90;;;-1.86;82.28;99218.22;4855887;28;24489;-63
2024/01/17 02:20:18;;;;;;;20.35;10.25;;;-1.50;99.90;;;-1.82;82.09;99212.06;4830638;28;24502;-63
2024/01/17 02:22:40;;;;;;;19.40;9.55;;;-1.50;99.90;;;-1.81;81.99;99202.69;4843838;28;24900;-62
2024/01/17 02:25:04;;;;;;;18.23;9.50;;;-1.50;99.90;;;-1.74;81.85;99202.31;4847459;28;24977;-64
2024/01/17 02:27:26;;;;;;;15.75;8.98;;;-1.50;99.90;;;-1.72;80.70;99195.41;4846401;28;24444;-63
2024/01/17 02:29:48;;;;;;;18.08;8.98;;;-1.40;99.90;;;-1.74;80.03;99192.09;4877040;28;24474;-64
2024/01/17 02:32:11;;;;;;;19.97;9.53;;;-1.40;99.90;;;-1.76;81.06;99185.38;4865075;28;24510;-64
2024/01/17 02:34:33;;;;;;;23.05;10.38;;;-1.40;99.90;;;-1.77;81.54;99176.88;4870052;28;24439;-63
2024/01/17 02:36:55;;;;;;;19.08;10.60;;;-1.50;99.90;;;-1.73;81.98;99175.88;4868632;28;25231;-64
2024/01/17 02:39:17;;;;;;;18.65;10.00;;;-1.40;99.90;;;-1.74;81.18;99168.25;4868164;28;24460;-64
2024/01/17 02:41:39;;;;;;;18.20;9.82;;;-1.40;99.90;;;-1.76;81.08;99163.22;4869104;28;24805;-63
2024/01/17 02:44:01;;;;;;;19.07;9.70;;;-1.40;99.90;;;-1.78;80.66;99161.63;4865268;28;24636;-64
2024/01/17 02:46:27;;;;;;;17.02;8.88;;;-1.50;99.90;;;-1.79;80.94;99158.22;4871645;28;24430;-64
2024/01/17 02:48:49;;;;;;;16.70;9.20;;;-1.50;99.90;;;-1.78;80.94;99156.50;4851889;28;24535;-63
2024/01/17 02:51:11;;;;;;;16.95;9.13;;;-1.50;99.90;;;-1.82;80.64;99142.22;4862406;28;24814;-64
2024/01/17 02:53:33;;;;;;;16.45;8.60;;;-1.50;99.90;;;-1.82;81.13;99137.94;4867189;28;24519;-63
2024/01/17 02:55:55;;;;;;;17.20;9.40;;;-1.50;99.90;;;-1.81;80.98;99129.34;4866310;28;24875;-64
2024/01/17 02:58:18;;;;;;;16.50;8.93;;;-1.50;99.90;;;-1.80;80.44;99123.34;4856139;28;24464;-62
2024/01/17 03:00:42;;;;;;;17.60;9.00;;;-1.50;99.90;;;-1.81;80.23;99129.34;4875562;28;24486;-64
2024/01/17 03:03:04;;;;;;;14.70;8.60;;;-1.50;99.90;;;-1.85;80.29;99125.28;4856039;28;25031;-64
2024/01/17 03:05:26;;;;;;;15.80;8.05;;;-1.50;99.90;;;-1.86;80.57;99123.63;4860757;28;24508;-64
2024/01/17 03:07:48;;;;;;;16.83;8.55;;;-1.50;99.90;;;-1.87;80.81;99116.84;4876646;28;25026;-64
2024/01/17 03:10:12;;;;;;;16.98;8.77;;;-1.60;99.90;;;-1.87;80.26;99114.28;4855477;28;24462;-64
2024/01/17 03:12:34;;;;;;;16.25;8.60;;;-1.60;99.90;;;-1.85;81.09;99109.09;4855763;28;24432;-62
2024/01/17 03:14:56;;;;;;;14.68;8.00;;;-1.60;99.90;;;-1.81;81.88;99108.91;4866315;28;24463;-64
2024/01/17 03:17:18;;;;;;;15.77;7.97;;;-1.50;99.90;;;-1.75;81.56;99107.81;4874183;28;24490;-64
2024/01/17 03:19:42;;;;;;;13.52;7.40;;;-1.50;99.90;;;-1.69;81.46;99100.69;4849919;28;25061;-63
2024/01/17 03:22:05;;;;;;;13.98;8.00;;;-1.40;99.90;;;-1.67;80.92;99101.44;4851397;28;24474;-64
2024/01/17 03:24:27;;;;;;;14.15;7.55;;;-1.40;99.90;;;-1.68;80.75;99102.31;4851503;28;24531;-64
2024/01/17 03:26:49;;;;;;;13.20;7.35;;;-1.40;99.90;;;-1.68;80.84;99088.69;4865318;28;24454;-63
2024/01/17 03:29:11;;;;;;;15.20;7.80;;;-1.40;99.90;;;-1.69;80.85;99092.19;4869738;28;24859;-63
2024/01/17 03:31:33;;;;;;;15.32;8.02;;;-1.40;99.90;;;-1.68;81.65;99081.88;4866061;28;24485;-61
2024/01/17 03:33:55;;;;;;;14.75;8.15;;;-1.40;99.90;;;-1.64;81.00;99082.56;4867699;28;24494;-64
2024/01/17 03:36:17;;;;;;;12.05;7.10;;;-1.30;99.90;;;-1.64;81.17;99083.38;4839956;28;24455;-62
2024/01/17 03:38:40;;;;;;;13.57;7.43;;;-1.30;99.90;;;-1.65;81.24;99073.22;4874615;28;24489;-64
2024/01/17 03:41:02;;;;;;;13.63;7.20;;;-1.30;99.90;;;-1.70;80.98;99062.38;4844625;28;25218;-64
2024/01/17 03:43:24;;;;;;;11.93;7.10;;;-1.40;99.90;;;-1.73;80.78;99060.81;4850090;28;24543;-63
2024/01/17 03:45:46;;;;;;;13.68;7.63;;;-1.40;99.90;;;-1.74;81.48;99056.59;4868657;28;24485;-63
2024/01/17 03:48:08;;;;;;;12.15;7.35;;;-1.40;99.90;;;-1.73;81.48;99055.72;4867642;28;25067;-64
2024/01/17 03:50:30;;;;;;;12.80;7.30;;;-1.40;99.90;;;-1.70;81.49;99045.31;4857294;28;24676;-64
2024/01/17 03:52:52;;;;;;;11.57;7.30;;;-1.40;99.90;;;-1.66;81.45;99046.00;4852228;28;24538;-64
2024/01/17 03:55:14;;;;;;;12.68;7.40;;;-1.40;99.90;;;-1.66;81.07;99036.59;4875041;28;24462;-64
2024/01/17 03:57:36;;;;;;;11.70;6.82;;;-1.30;99.90;;;-1.68;81.80;99030.72;4870792;28;25072;-64
2024/01/17 03:59:58;;;;;;;11.45;7.35;;;-1.30;99.90;;;-1.64;81.95;99023.75;4872452;28;24529;-64
2024/01/17 04:02:20;;;;;;;10.82;7.10;;;-1.30;99.90;;;-1.61;82.15;99021.03;4871467;28;24436;-64
2024/01/17 04:04:42;;;;;;;11.15;6.97;;;-1.30;99.90;;;-1.60;81.29;99005.59;4871002;28;24428;-64
2024/01/17 04:07:04;;;;;;;11.25;6.95;;;-1.30;99.90;;;-1.58;81.49;99008.91;4857557;28;24425;-63
2024/01/17 04:09:26;;;;;;;9.35;6.82;;;-1.30;99.90;;;-1.61;81.27;98998.03;4838964;28;24606;-64
2024/01/17 04:11:48;;;;;;;13.70;7.18;;;-1.30;99.90;;;-1.64;81.94;98988.75;4874078;28;24504;-63
2024/01/17 04:14:10;;;;;;;12.57;7.07;;;-1.30;99.90;;;-1.62;81.61;98988.72;4866625;28;25060;-64
2024/01/17 04:16:36;;;;;;;12.88;7.30;;;-1.40;99.90;;;-1.61;81.42;98985.22;4847404;28;24481;-64
2024/01/17 04:18:58;;;;;;;8.57;6.00;;;-1.30;99.90;;;-1.55;81.71;98979.81;4868718;28;24431;-64
2024/01/17 04:21:20;;;;;;;9.43;6.00;;;-1.30;99.90;;;-1.54;81.74;98965.31;4855406;28;24450;-64
2024/01/17 04:23:42;;;;;;;9.02;5.60;;;-1.30;99.90;;;-1.55;81.16;98956.81;4867980;28;24435;-63
2024/01/17 04:26:04;;;;;;;12.55;6.80;;;-1.30;99.90;;;-1.59;81.67;98956.13;4849598;28;25034;-64
2024/01/17 04:28:26;;;;;;;11.50;6.70;;;-1.30;99.90;;;-1.60;81.92;98940.88;4864753;28;24805;-63
2024/01/17 04:30:48;;;;;;;11.13;6.28;;;-1.30;99.90;;;-1.59;82.28;98945.06;4856905;28;24427;-63
2024/01/17 04:33:10;;;;;;;10.50;6.80;;;-1.30;99.90;;;-1.54;81.30;98942.28;4867056;28;24450;-64
2024/01/17 04:35:32;;;;;;;10.55;6.60;;;-1.30;99.90;;;-1.53;81.64;98938.84;4866692;28;24551;-65
2024/01/17 04:37:54;;;;;;;10.80;6.63;;;-1.30;99.90;;;-1.51;81.67;98931.91;4840895;28;24462;-64
2024/01/17 04:40:16;;;;;;;11.30;5.80;;;-1.20;99.90;;;-1.49;81.07;98922.44;4858428;28;24538;-63
2024/01/17 04:42:39;;;;;;;9.68;5.90;;;-1.20;99.90;;;-1.53;82.05;98926.06;4870188;28;24482;-63
2024/01/17 04:45:03;;;;;;;11.85;6.00;;;-1.20;99.90;;;-1.57;81.68;98915.13;4870732;28;24538;-64
2024/01/17 04:47:25;;;;;;;11.20;6.47;;;-1.20;99.90;;;-1.63;82.07;98897.53;4874145;28;24461;-64
2024/01/17 04:49:47;;;;;;;10.38;6.10;;;-1.30;99.90;;;-1.68;82.60;98889.28;4869528;28;24462;-64
2024/01/17 04:52:09;;;;;;;13.65;6.10;;;-1.30;99.90;;;-1.79;82.15;98887.25;4865836;28;24454;-63
2024/01/17 04:54:31;;;;;;;9.35;5.68;;;-1.40;99.90;;;-1.81;82.54;98873.72;4853817;28;24428;-65
2024/01/17 04:56:53;;;;;;;9.68;6.20;;;-1.40;99.90;;;-1.80;82.54;98872.00;4843767;28;24445;-64
2024/01/17 04:59:15;;;;;;;9.73;5.88;;;-1.40;99.90;;;-1.78;83.79;98873.56;4823785;28;24452;-63
2024/01/17 05:01:37;;;;;;;10.45;6.10;;;-1.40;99.90;;;-1.77;82.86;98859.88;4846697;28;24434;-64
2024/01/17 05:03:59;;;;;;;9.45;6.40;;;-1.40;99.90;;;-1.77;83.43;98859.06;4838311;28;25045;-65
2024/01/17 05:06:21;;;;;;;9.50;6.35;;;-1.40;99.90;;;-1.76;83.02;98851.31;4871503;28;24453;-64
2024/01/17 05:08:43;;;;;;;10.02;6.30;;;-1.40;99.90;;;-1.71;83.34;98857.03;4837128;28;24514;-64
2024/01/17 05:11:05;;;;;;;9.50;5.90;;;-1.40;99.90;;;-1.70;83.60;98856.13;4863996;28;24484;-62
2024/01/17 05:13:28;;;;;;;7.63;5.13;;;-1.40;99.90;;;-1.65;83.76;98849.06;4859729;28;24837;-63
2024/01/17 05:15:50;;;;;;;10.60;5.93;;;-1.30;99.90;;;-1.64;83.26;98839.66;4838203;28;24992;-64
2024/01/17 05:18:12;;;;;;;10.68;6.47;;;-1.30;99.90;;;-1.60;82.64;98834.28;4871969;28;25032;-64
2024/01/17 05:20:34;;;;;;;12.30;6.80;;;-1.30;99.90;;;-1.57;83.32;98829.03;4863646;28;24448;-65
2024/01/17 05:22:56;;;;;;;8.88;5.35;;;-1.30;99.90;;;-1.53;82.76;98821.22;4864481;28;24637;-64
2024/01/17 05:25:18;;;;;;;11.18;5.80;;;-1.20;99.90;;;-1.56;82.73;98804.28;4853371;28;24486;-64
2024/01/17 05:27:40;;;;;;;9.63;5.30;;;-1.20;99.90;;;-1.55;82.42;98807.69;4843194;28;24458;-63
2024/01/17 05:30:03;;;;;;;10.82;6.28;;;-1.20;99.90;;;-1.62;83.08;98804.59;4870346;28;24450;-64
2024/01/17 05:32:25;;;;;;;11.23;6.30;;;-1.20;99.90;;;-1.63;83.77;98803.78;4874209;28;24434;-64
2024/01/17 05:34:50;;;;;;;11.05;6.80;;;-1.30;99.90;;;-1.57;83.08;98802.63;4868374;28;24522;-64
2024/01/17 05:37:12;;;;;;;10.48;5.85;;;-1.30;99.90;;;-1.52;83.40;98800.66;4874864;28;24431;-65
2024/01/17 05:39:34;;;;;;;9.45;5.93;;;-1.20;99.90;;;-1.51;83.46;98798.94;4867271;28;24435;-65
2024/01/17 05:41:56;;;;;;;9.18;6.20;;;-1.20;99.90;;;-1.50;83.75;98792.91;4866552;28;24454;-64
2024/01/17 05:44:18;;;;;;;12.15;6.00;;;-1.20;99.90;;;-1.49;83.72;98797.13;4874344;28;24439;-64
2024/01/17 05:46:40;;;;;;;9.80;6.40;;;-1.20;99.90;;;-1.43;83.53;98794.25;4865147;28;24517;-65
2024/01/17 05:49:02;;;;;;;10.40;6.20;;;-1.10;99.90;;;-1.33;83.27;98785.16;4870551;28;24500;-65
2024/01/17 05:51:24;;;;;;;10.45;6.07;;;-1.10;99.90;;;-1.28;83.08;98790.88;4869175;28;24478;-64
2024/01/17 05:53:46;;;;;;;9.05;6.30;;;-1.00;99.90;;;-1.25;83.06;98783.84;4873755;28;24427;-64
2024/01/17 05:56:08;;;;;;;9.93;5.90;;;-1.00;99.90;;;-1.20;83.45;98773.38;4870578;28;25029;-64
2024/01/17 05:58:30;;;;;;;11.75;5.93;;;-0.90;99.90;;;-1.18;82.89;98774.94;4862919;28;24463;-64
2024/01/17 06:00:52;;;;;;;10.07;6.88;;;-0.90;99.90;;;-1.17;83.67;98765.56;4851781;28;24924;-64
2024/01/17 06:03:15;;;;;;;10.98;7.10;;;-0.90;99.90;;;-1.13;83.83;98754.25;4859821;28;24808;-63
2024/01/17 06:05:37;;;;;;;12.52;7.57;;;-0.90;99.90;;;-1.05;84.54;98763.16;4853630;28;24996;-63
2024/01/17 06:07:59;;;;;;;11.57;7.20;;;-0.80;99.90;;;-0.99;84.78;98747.44;4852081;28;24502;-63
2024/01/17 06:10:21;;;;;;;11.73;7.43;;;-0.80;99.90;;;-0.92;84.78;98737.72;4851334;28;24502;-62
2024/01/17 06:12:43;;;;;;;12.93;7.28;;;-0.70;99.90;;;-0.89;85.44;98740.06;4873798;28;24463;-63
2024/01/17 06:15:06;;;;;;;12.68;7.30;;;-0.60;99.90;;;-0.99;85.94;98731.25;4853802;28;24479;-64
2024/01/17 06:17:28;;;;;;;13.63;7.95;;;-0.70;99.90;;;-1.01;86.76;98717.72;4838345;28;25039;-64
2024/01/17 06:19:50;;;;;;;13.68;8.43;;;-0.70;99.90;;;-0.96;86.98;98716.56;4866048;28;24454;-63
2024/01/17 06:22:18;;;;;;;14.13;7.97;;;-0.70;99.90;;;-0.95;87.34;98707.16;4864299;28;24466;-64
2024/01/17 06:24:40;;;;;;;14.25;8.10;;;-0.70;99.90;;;-0.91;87.67;98703.50;4853317;28;24972;-62
2024/01/17 06:27:03;;;;;;;14.02;9.20;;;-0.70;99.90;;;-0.92;88.68;98696.75;4870320;28;24508;-63
2024/01/17 06:29:26;;;;;;;13.48;8.55;;;-0.70;99.90;;;-0.88;88.72;98698.22;4870945;28;24521;-62
2024/01/17 06:31:48;;;;;;;14.00;8.82;;;-0.60;99.90;;;-0.83;89.26;98693.66;4834897;28;24855;-63
2024/01/17 06:34:10;;;;;;;15.65;8.50;;;-0.60;99.90;;;-0.88;89.14;98688.81;4869198;28;24438;-64
2024/01/17 06:36:32;;;;;;;12.50;8.20;;;-0.60;99.90;;;-0.86;89.78;98681.03;4873160;28;24960;-64
2024/01/17 06:38:55;;;;;;;13.80;8.60;;;-0.60;99.90;;;-0.83;89.37;98678.28;4865915;28;24912;-65
2024/01/17 06:41:17;;;;;;;11.82;7.93;;;-0.60;99.90;;;-0.81;89.71;98679.06;4870451;28;24521;-63
2024/01/17 06:43:39;;;;;;;15.53;8.43;;;-0.60;99.90;;;-0.80;89.27;98673.00;4870161;28;24493;-64
2024/01/17 06:46:01;;;;;;;12.95;8.18;;;-0.60;99.90;;;-0.79;89.95;98661.88;4862226;28;24433;-63
2024/01/17 06:48:23;;;;;;;14.05;8.30;;;-0.50;99.90;;;-0.77;89.42;98658.28;4837475;28;24534;-64
2024/01/17 06:50:45;;;;;;;13.35;7.57;;;-0.50;99.90;;;-0.78;89.75;98653.25;4852363;28;24472;-63
2024/01/17 06:53:07;;;;;;;12.15;8.20;;;-0.50;99.90;;;-0.79;89.64;98643.94;4854484;28;21226;-65
2024/01/17 06:55:28;;;;;;;15.15;8.02;;;-0.50;99.90;;;-0.82;89.93;98639.81;4860753;28;25013;-63
2024/01/17 06:57:51;;;;;;;14.10;8.47;;;-0.50;99.90;;;-0.84;90.09;98645.94;4857364;28;24538;-63
2024/01/17 07:00:16;;;;;;;13.48;8.10;;;-0.60;99.90;;;-0.85;90.12;98637.41;4864574;28;24526;-63
2024/01/17 07:02:39;;;;;;;15.27;8.55;;;-0.60;99.90;;;-0.86;89.85;98629.84;4863034;28;24445;-63
2024/01/17 07:05:01;;;;;;;14.50;8.95;;;-0.60;99.90;;;-0.87;90.30;98625.63;4866679;28;24473;-64
2024/01/17 07:07:24;;;;;;;14.35;8.70;;;-0.60;99.90;;;-0.86;90.29;98628.09;4852142;28;24494;-62
2024/01/17 07:09:45;;;;;;;15.67;9.27;;;-0.60;99.90;;;-0.83;90.70;98624.53;4858485;28;24542;-63
2024/01/17 07:12:07;;;;;;;14.48;9.13;;;-0.60;99.90;;;-0.78;90.88;98617.41;4869610;28;24518;-64
2024/01/17 07:14:30;;;;;;;14.90;9.20;;;-0.60;99.90;;;-0.72;91.30;98631.63;4862565;28;24522;-64
2024/01/17 07:16:52;;;;;;;12.90;8.80;;;-0.50;99.90;;;-0.65;91.39;98622.66;4864081;28;24547;-64
2024/01/17 07:19:14;;;;;;;15.32;8.82;;;-0.40;99.90;;;-0.58;91.11;98626.50;4840074;28;25076;-64
2024/01/17 07:21:41;;;;;;;14.88;9.50;;;-0.40;99.90;;;-0.58;90.99;98609.41;4868671;28;25048;-64
2024/01/17 07:24:03;;;;;;;15.40;9.20;;;-0.40;99.90;;;-0.52;91.86;98600.53;4854818;28;24922;-64
2024/01/17 07:26:24;;;;;;;15.68;9.52;;;-0.30;99.90;;;-0.55;91.15;98604.09;4869654;28;24440;-64
2024/01/17 07:28:46;;;;;;;16.45;9.23;;;-0.30;99.90;;;-0.54;91.92;98598.06;4869148;28;24961;-64
2024/01/17 07:31:08;;;;;;;16.77;8.90;;;-0.30;99.90;;;-0.51;92.22;98587.63;4838725;28;24502;-63
2024/01/17 07:33:31;;;;;;;15.43;9.30;;;-0.30;99.90;;;-0.53;92.49;98589.44;4874215;28;24510;-64
2024/01/17 07:35:54;;;;;;;14.70;9.57;;;-0.30;99.90;;;-0.55;92.68;98581.03;4858869;28;24477;-64
2024/01/17 07:38:16;;;;;;;14.90;9.00;;;-0.30;99.90;;;-0.57;92.87;98576.91;4864337;28;24486;-64
2024/01/17 07:40:37;;;;;;;15.15;9.63;;;-0.30;99.90;;;-0.57;93.18;98576.91;4873013;28;24856;-63
2024/01/17 07:43:00;;;;;;;14.50;9.35;;;-0.30;99.90;;;-0.55;92.95;98567.41;4847996;28;24852;-64
2024/01/17 07:45:22;;;;;;;16.85;9.55;;;-0.30;99.90;;;-0.56;93.49;98558.91;4848677;28;24447;-61
2024/01/17 07:47:45;;;;;;;18.02;10.20;;;-0.30;99.90;;;-0.59;93.66;98546.28;4857507;28;24486;-63
2024/01/17 07:50:09;;;;;;;17.92;10.23;;;-0.30;99.90;;;-0.60;93.94;98541.25;4870539;28;25085;-63
2024/01/17 07:52:31;;;;;;;16.02;9.80;;;-0.30;99.90;;;-0.57;93.87;98539.31;4852394;28;24444;-64
2024/01/17 07:54:53;;;;;;;15.20;9.77;;;-0.30;99.90;;;-0.59;93.79;98530.91;4867457;28;24430;-63
2024/01/17 07:57:15;;;;;;;18.50;9.88;;;-0.30;99.90;;;-0.58;93.91;98522.34;4854602;28;24560;-62
2024/01/17 07:59:37;;;;;;;17.20;9.63;;;-0.30;99.90;;;-0.59;93.81;98520.66;4873666;28;24457;-64
2024/01/17 08:02:00;;;;;;;16.42;9.50;;;-0.30;99.90;;;-0.55;93.71;98517.00;4854459;28;24451;-63
2024/01/17 08:04:22;;;;;;;16.63;9.45;;;-0.30;99.90;;;-0.57;93.45;98518.84;4863302;28;24526;-63
2024/01/17 08:06:44;;;;;;;16.25;9.48;;;-0.30;99.90;;;-0.56;93.68;98520.50;4851199;28;24451;-64
2024/01/17 08:09:20;;;;;;;15.73;9.05;;;-0.30;99.90;;;-0.56;94.10;98515.38;4848762;28;24430;-64
2024/01/17 08:11:42;;;;;;;23.10;12.20;;;-0.30;99.90;;;-0.55;93.53;98509.31;4871683;28;24726;-64
2024/01/17 08:14:04;;;;;;;23.10;12.02;;;-0.30;99.90;;;-0.54;94.36;98505.88;4864394;28;24431;-64
2024/01/17 08:16:26;;;;;;;19.90;11.80;;;-0.30;99.90;;;-0.52;94.53;98504.03;4863031;28;24525;-63
2024/01/17 08:18:48;;;;;;;24.10;11.50;;;-0.30;99.90;;;-0.52;94.51;98500.63;4867596;28;24423;-64
2024/01/17 08:21:10;;;;;;;17.55;10.27;;;-0.30;99.90;;;-0.53;94.71;98492.13;4849903;28;24435;-63
2024/01/17 08:23:34;;;;;;;15.50;9.60;;;-0.20;99.90;;;-0.48;94.68;98490.13;4868937;28;24444;-63
2024/01/17 08:25:56;;;;;;;17.63;10.20;;;-0.20;99.90;;;-0.52;94.99;98480.97;4866549;28;24902;-64
2024/01/17 08:28:18;;;;;;;16.40;9.70;;;-0.20;99.90;;;-0.50;94.58;98478.31;4852618;28;24857;-65
2024/01/17 08:30:40;;;;;;;17.25;10.00;;;-0.20;99.90;;;-0.45;94.95;98477.13;4854886;28;24982;-64
2024/01/17 08:33:02;;;;;;;18.90;11.05;;;-0.20;99.90;;;-0.38;94.86;98462.19;4866009;28;24539;-63
2024/01/17 08:35:25;;;;;;;19.50;10.35;;;-0.10;99.90;;;-0.32;94.68;98464.38;4858606;28;24444;-64
2024/01/17 08:37:47;;;;;;;17.65;9.88;;;-0.10;99.90;;;-0.29;94.54;98465.00;4863690;28;24451;-64
2024/01/17 08:40:10;;;;;;;17.83;10.10;;;-0.10;99.90;;;-0.23;94.23;98459.50;4862015;28;24474;-65
2024/01/17 08:42:32;;;;;;;18.98;10.60;;;0.00;99.90;;;-0.18;94.42;98461.78;4872738;28;24914;-64
2024/01/17 08:44:54;;;;;;;20.63;11.00;;;0.00;99.90;;;-0.17;94.62;98455.75;4857811;28;24479;-66
2024/01/17 08:47:17;;;;;;;16.95;10.30;;;0.00;99.90;;;-0.23;94.34;98445.84;4867068;28;24812;-64
2024/01/17 08:49:40;;;;;;;19.45;11.15;;;0.00;99.90;;;-0.24;94.85;98444.22;4849317;28;24977;-65
2024/01/17 08:52:02;;;;;;;16.27;10.70;;;0.00;99.90;;;-0.22;94.85;98442.38;4837821;28;24988;-64
2024/01/17 08:54:25;;;;;;;19.42;10.73;;;0.00;99.90;;;-0.20;95.03;98431.13;4853041;28;24437;-65
2024/01/17 08:56:48;;;;;;;16.88;10.32;;;0.00;99.90;;;-0.15;94.88;98418.03;4828409;28;24435;-63
2024/01/17 08:59:10;;;;;;;15.55;9.95;;;0.10;99.90;;;-0.12;95.05;98418.66;4860947;28;24443;-64
2024/01/17 09:01:32;;;;;;;16.88;10.10;;;0.10;99.90;;;-0.14;94.84;98406.84;4838673;28;24489;-65
2024/01/17 09:03:55;;;;;;;16.40;10.43;;;0.10;99.90;;;-0.12;95.12;98400.72;4866770;28;24880;-65
2024/01/17 09:06:17;;;;;;;16.38;9.73;;;0.10;99.90;;;-0.04;94.77;98407.91;4855997;28;20861;-64
2024/01/17 09:08:39;;;;;;;16.33;10.00;;;0.10;99.90;;;0.00;94.57;98399.13;4863668;28;24451;-64
2024/01/17 09:11:01;;;;;;;18.20;11.07;;;0.20;99.90;;;0.00;94.02;98396.56;4866844;28;24490;-65
2024/01/17 09:13:23;;;;;;;19.80;11.50;;;0.20;99.90;;;-0.02;93.97;98382.97;4867899;28;24513;-64
2024/01/17 09:15:45;;;;;;;18.20;10.73;;;0.20;99.90;;;0.03;94.66;98385.25;4868205;28;24574;-63
2024/01/17 09:18:07;;;;;;;18.33;10.80;;;0.20;99.90;;;0.05;94.33;98375.72;4850172;28;24456;-65
2024/01/17 09:20:29;;;;;;;17.20;10.73;;;0.30;99.90;;;0.06;94.16;98385.06;4862604;28;24463;-65
2024/01/17 09:22:51;;;;;;;19.00;11.00;;;0.30;99.90;;;0.04;94.35;98376.66;4831579;28;24977;-63
2024/01/17 09:25:13;;;;;;;18.70;10.30;;;0.20;99.90;;;0.09;94.57;98372.03;4864346;28;24542;-65
2024/01/17 09:27:36;;;;;;;17.43;10.50;;;0.20;99.90;;;0.08;94.19;98365.28;4866044;28;24439;-64
2024/01/17 09:29:59;;;;;;;16.30;10.60;;;0.30;99.90;;;0.10;94.29;98354.00;4846986;28;24556;-64
2024/01/17 09:32:21;;;;;;;17.10;9.87;;;0.30;99.90;;;0.10;94.45;98363.44;4867408;28;24526;-67
2024/01/17 09:34:47;;;;;;;18.10;10.20;;;0.30;99.90;;;0.13;94.51;98353.00;4845476;28;24436;-65
2024/01/17 09:37:10;;;;;;;16.55;10.20;;;0.30;99.90;;;0.17;94.13;98349.31;4841156;28;25007;-65
2024/01/17 09:39:32;;;;;;;16.05;10.35;;;0.40;99.90;;;0.20;94.18;98343.94;4856037;28;24519;-64
2024/01/17 09:41:54;;;;;;;19.17;10.50;;;0.40;99.90;;;0.15;93.73;98333.19;4873092;28;24431;-65
2024/01/17 09:44:16;;;;;;;16.87;10.40;;;0.40;99.90;;;0.19;93.80;98324.38;4861832;28;24553;-65
2024/01/17 09:46:43;;;;;;;20.25;10.90;;;0.40;99.90;;;0.21;94.16;98325.09;4842018;28;24539;-65
2024/01/17 09:49:05;;;;;;;19.42;10.32;;;0.40;99.90;;;0.23;93.87;98329.22;4863605;28;24504;-65
2024/01/17 09:51:31;;;;;;;18.52;10.27;;;0.40;99.90;;;0.30;94.08;98327.06;4855083;28;24513;-65